createdAt,value
2022-10-14T00:01:17.121Z,8.61
2022-10-14T00:02:19.481Z,8.55
2022-10-14T00:03:21.681Z,8.53
2022-10-14T00:04:23.998Z,8.61
2022-10-14T00:05:26.268Z,8.55
2022-10-14T00:06:31.498Z,8.57
2022-10-14T00:07:33.822Z,8.62
2022-10-14T00:08:36.198Z,8.65
2022-10-14T00:09:42.158Z,8.69
2022-10-14T00:10:45.390Z,8.68
2022-10-14T00:11:48.220Z,8.68
2022-10-14T00:12:50.738Z,8.68
2022-10-14T00:13:58.649Z,8.66
2022-10-14T00:15:01.131Z,8.70
2022-10-14T00:16:04.463Z,8.72
2022-10-14T00:17:07.042Z,8.75
2022-10-14T00:18:09.998Z,8.74
2022-10-14T00:19:13.589Z,8.67
2022-10-14T00:20:15.979Z,8.61
2022-10-14T00:21:19.210Z,8.57
2022-10-14T00:22:21.583Z,8.54
2022-10-14T00:23:24.296Z,8.55
2022-10-14T00:24:26.558Z,8.62
2022-10-14T00:25:29.437Z,8.68
2022-10-14T00:26:34.292Z,8.68
2022-10-14T00:27:36.552Z,8.70
2022-10-14T00:28:39.612Z,8.72
2022-10-14T00:29:42.086Z,8.73
2022-10-14T00:30:54.038Z,8.74
2022-10-14T00:31:56.285Z,8.75
2022-10-14T00:32:58.596Z,8.71
2022-10-14T00:34:00.937Z,8.67
2022-10-14T00:35:03.364Z,8.66
2022-10-14T00:36:07.751Z,8.69
2022-10-14T00:37:10.204Z,8.66
2022-10-14T00:38:12.442Z,8.63
2022-10-14T00:39:14.683Z,8.62
2022-10-14T00:40:17.084Z,8.67
2022-10-14T00:41:22.833Z,8.66
2022-10-14T00:42:25.354Z,8.63
2022-10-14T00:43:28.465Z,8.66
2022-10-14T00:44:30.602Z,8.69
2022-10-14T00:45:34.950Z,8.70
2022-10-14T00:46:39.951Z,8.73
2022-10-14T00:47:43.721Z,8.74
2022-10-14T00:48:46.227Z,8.77
2022-10-14T00:49:48.645Z,8.77
2022-10-14T00:50:54.520Z,8.75
2022-10-14T00:52:02.624Z,8.76
2022-10-14T00:53:06.571Z,8.80
2022-10-14T00:54:10.326Z,8.84
2022-10-14T00:55:18.769Z,8.84
2022-10-14T00:56:27.500Z,8.85
2022-10-14T00:57:30.882Z,8.86
2022-10-14T00:58:33.165Z,8.89
2022-10-14T00:59:35.514Z,8.95
2022-10-14T01:00:39.409Z,9.00
2022-10-14T01:01:41.815Z,9.03
2022-10-14T01:02:44.412Z,8.98
2022-10-14T01:03:46.667Z,9.00
2022-10-14T01:04:50.241Z,9.00
2022-10-14T01:06:32.189Z,8.96
2022-10-14T01:07:40.487Z,8.95
2022-10-14T01:08:55.418Z,8.95
2022-10-14T01:10:36.087Z,8.95
2022-10-14T01:12:27.353Z,9.02
2022-10-14T01:13:31.898Z,8.94
2022-10-14T01:15:05.185Z,8.92
2022-10-14T01:16:16.277Z,8.92
2022-10-14T01:18:07.583Z,8.92
2022-10-14T01:19:12.548Z,8.93
2022-10-14T01:20:23.393Z,8.98
2022-10-14T01:21:35.918Z,8.98
2022-10-14T01:22:50.208Z,8.99
2022-10-14T01:24:13.629Z,8.97
2022-10-14T01:25:24.623Z,8.94
2022-10-14T01:26:45.489Z,8.93
2022-10-14T01:27:59.548Z,8.96
2022-10-14T01:29:15.056Z,8.95
2022-10-14T01:30:22.680Z,8.99
2022-10-14T01:31:30.671Z,8.97
2022-10-14T01:32:39.292Z,8.95
2022-10-14T01:33:46.272Z,8.97
2022-10-14T01:35:08.675Z,8.92
2022-10-14T01:36:18.661Z,8.96
2022-10-14T01:37:26.734Z,8.98
2022-10-14T01:38:55.695Z,8.93
2022-10-14T01:40:07.176Z,8.89
2022-10-14T01:41:19.135Z,8.95
2022-10-14T01:42:25.129Z,8.95
2022-10-14T01:43:29.962Z,8.90
2022-10-14T01:44:34.715Z,8.95
2022-10-14T01:45:39.149Z,8.90
2022-10-14T01:46:47.345Z,8.92
2022-10-14T01:47:51.640Z,8.95
2022-10-14T01:48:59.156Z,8.91
2022-10-14T01:50:10.102Z,8.92
2022-10-14T01:51:18.501Z,8.88
2022-10-14T01:52:28.153Z,8.82
2022-10-14T01:53:36.499Z,8.82
2022-10-14T01:54:42.063Z,8.83
2022-10-14T01:55:48.322Z,8.82
2022-10-14T01:56:55.872Z,8.80
2022-10-14T01:57:59.176Z,8.83
2022-10-14T01:59:03.234Z,8.84
2022-10-14T02:00:07.477Z,8.80
2022-10-14T02:01:16.292Z,8.79
2022-10-14T02:02:21.043Z,8.80
2022-10-14T02:03:23.738Z,8.76
2022-10-14T02:04:26.006Z,8.74
2022-10-14T02:05:43.279Z,8.76
2022-10-14T02:07:07.754Z,8.72
2022-10-14T02:08:26.341Z,8.72
2022-10-14T02:09:53.489Z,8.70
2022-10-14T02:11:00.997Z,8.71
2022-10-14T02:12:39.182Z,8.66
2022-10-14T02:13:41.449Z,8.68
2022-10-14T02:14:49.620Z,8.67
2022-10-14T02:16:12.912Z,8.71
2022-10-14T02:17:26.043Z,8.68
2022-10-14T02:19:20.251Z,8.63
2022-10-14T02:20:54.449Z,8.65
2022-10-14T02:22:18.958Z,8.64
2022-10-14T02:23:26.272Z,8.61
2022-10-14T02:24:36.057Z,8.59
2022-10-14T02:25:40.792Z,8.62
2022-10-14T02:26:43.903Z,8.57
2022-10-14T02:27:47.763Z,8.59
2022-10-14T02:28:53.125Z,8.60
2022-10-14T02:29:57.367Z,8.61
2022-10-14T02:31:04.896Z,8.55
2022-10-14T02:32:08.661Z,8.53
2022-10-14T02:33:12.420Z,8.50
2022-10-14T02:34:18.542Z,8.53
2022-10-14T02:35:23.945Z,8.50
2022-10-14T02:36:27.672Z,8.48
2022-10-14T02:37:30.617Z,8.49
2022-10-14T02:38:35.908Z,8.52
2022-10-14T02:39:44.659Z,8.49
2022-10-14T02:40:50.024Z,8.50
2022-10-14T02:41:52.250Z,8.53
2022-10-14T02:42:54.604Z,8.50
2022-10-14T02:43:57.039Z,8.53
2022-10-14T02:45:01.180Z,8.50
2022-10-14T02:46:04.845Z,8.56
2022-10-14T02:47:07.183Z,8.57
2022-10-14T02:48:10.424Z,8.59
2022-10-14T02:49:13.171Z,8.59
2022-10-14T02:50:15.478Z,8.59
2022-10-14T02:51:17.861Z,8.58
2022-10-14T02:52:20.654Z,8.59
2022-10-14T02:53:23.343Z,8.59
2022-10-14T02:54:25.695Z,8.60
2022-10-14T02:55:28.156Z,8.62
2022-10-14T02:56:30.407Z,8.61
2022-10-14T02:57:36.287Z,8.62
2022-10-14T02:58:38.541Z,8.62
2022-10-14T02:59:40.897Z,8.71
2022-10-14T03:00:43.167Z,8.70
2022-10-14T03:01:47.321Z,8.72
2022-10-14T03:02:50.474Z,8.74
2022-10-14T03:03:54.274Z,8.71
2022-10-14T03:04:58.886Z,8.68
2022-10-14T03:06:02.005Z,8.69
2022-10-14T03:07:05.265Z,8.68
2022-10-14T03:08:11.279Z,8.66
2022-10-14T03:09:14.480Z,8.64
2022-10-14T03:10:17.627Z,8.67
2022-10-14T03:11:19.972Z,8.68
2022-10-14T03:12:22.565Z,8.67
2022-10-14T03:13:25.818Z,8.69
2022-10-14T03:14:28.498Z,8.70
2022-10-14T03:15:31.666Z,8.70
2022-10-14T03:16:34.880Z,8.69
2022-10-14T03:17:38.263Z,8.71
2022-10-14T03:18:41.738Z,8.70
2022-10-14T03:19:54.219Z,8.68
2022-10-14T03:20:57.368Z,8.72
2022-10-14T03:22:06.893Z,8.68
2022-10-14T03:23:12.383Z,8.66
2022-10-14T03:24:15.645Z,8.74
2022-10-14T03:25:18.281Z,8.70
2022-10-14T03:26:46.521Z,8.69
2022-10-14T03:27:50.660Z,8.67
2022-10-14T03:28:52.905Z,8.63
2022-10-14T03:29:59.274Z,8.60
2022-10-14T03:31:01.594Z,8.61
2022-10-14T03:32:23.901Z,8.63
2022-10-14T03:33:44.969Z,8.64
2022-10-14T03:34:49.658Z,8.71
2022-10-14T03:35:56.983Z,8.71
2022-10-14T03:37:11.610Z,8.71
2022-10-14T03:38:21.591Z,8.69
2022-10-14T03:39:24.881Z,8.71
2022-10-14T03:40:29.406Z,8.67
2022-10-14T03:41:33.775Z,8.69
2022-10-14T03:42:36.124Z,8.67
2022-10-14T03:43:38.508Z,8.69
2022-10-14T03:44:41.489Z,8.68
2022-10-14T03:45:53.650Z,8.69
2022-10-14T03:46:59.223Z,8.68
2022-10-14T03:48:05.727Z,8.70
2022-10-14T03:49:08.022Z,8.72
2022-10-14T03:50:10.463Z,8.66
2022-10-14T03:51:18.618Z,8.59
2022-10-14T03:52:22.132Z,8.59
2022-10-14T03:53:35.196Z,8.60
2022-10-14T03:54:37.466Z,8.64
2022-10-14T03:55:40.933Z,8.68
2022-10-14T03:56:43.649Z,8.70
2022-10-14T03:57:47.056Z,8.71
2022-10-14T03:58:56.046Z,8.67
2022-10-14T03:59:59.629Z,8.67
2022-10-14T04:01:15.671Z,8.71
2022-10-14T04:02:37.526Z,8.74
2022-10-14T04:03:46.689Z,8.71
2022-10-14T04:04:48.893Z,8.66
2022-10-14T04:05:54.020Z,8.63
2022-10-14T04:06:58.697Z,8.63
2022-10-14T04:08:02.654Z,8.62
2022-10-14T04:09:05.434Z,8.60
2022-10-14T04:10:11.961Z,8.68
2022-10-14T04:11:19.046Z,8.67
2022-10-14T04:12:23.178Z,8.66
2022-10-14T04:13:37.265Z,8.66
2022-10-14T04:14:40.290Z,8.68
2022-10-14T04:15:42.746Z,8.67
2022-10-14T04:16:52.917Z,8.68
2022-10-14T04:17:56.564Z,8.69
2022-10-14T04:18:59.212Z,8.69
2022-10-14T04:20:01.734Z,8.70
2022-10-14T04:21:07.393Z,8.68
2022-10-14T04:22:11.320Z,8.66
2022-10-14T04:23:13.974Z,8.67
2022-10-14T04:24:17.873Z,8.69
2022-10-14T04:25:39.762Z,8.70
2022-10-14T04:26:42.999Z,8.71
2022-10-14T04:27:55.039Z,8.64
2022-10-14T04:29:01.779Z,8.71
2022-10-14T04:30:17.505Z,8.69
2022-10-14T04:31:26.233Z,8.71
2022-10-14T04:32:35.417Z,8.75
2022-10-14T04:33:40.670Z,8.76
2022-10-14T04:34:51.433Z,8.82
2022-10-14T04:35:58.912Z,8.81
2022-10-14T04:37:06.806Z,8.82
2022-10-14T04:38:24.039Z,8.80
2022-10-14T04:39:34.356Z,8.83
2022-10-14T04:40:37.556Z,8.79
2022-10-14T04:41:40.205Z,8.81
2022-10-14T04:42:42.540Z,8.80
2022-10-14T04:43:53.679Z,8.89
2022-10-14T04:45:04.313Z,8.94
2022-10-14T04:46:21.483Z,8.90
2022-10-14T04:47:24.566Z,8.94
2022-10-14T04:48:32.920Z,8.90
2022-10-14T04:49:35.531Z,8.96
2022-10-14T04:50:53.741Z,8.90
2022-10-14T04:52:21.992Z,8.94
2022-10-14T04:53:37.000Z,8.97
2022-10-14T04:54:48.276Z,8.98
2022-10-14T04:55:51.873Z,9.02
2022-10-14T04:56:54.412Z,9.01
2022-10-14T04:57:56.818Z,9.05
2022-10-14T04:59:01.901Z,8.98
2022-10-14T05:00:27.241Z,8.96
2022-10-14T05:01:35.712Z,9.01
2022-10-14T05:02:38.099Z,9.06
2022-10-14T05:03:40.383Z,9.07
2022-10-14T05:04:42.650Z,9.09
2022-10-14T05:05:45.288Z,9.10
2022-10-14T05:06:48.719Z,9.13
2022-10-14T05:07:54.841Z,9.10
2022-10-14T05:09:07.770Z,9.08
2022-10-14T05:10:10.562Z,9.09
2022-10-14T05:11:17.032Z,9.14
2022-10-14T05:12:25.967Z,9.15
2022-10-14T05:13:33.560Z,9.12
2022-10-14T05:14:39.921Z,9.14
2022-10-14T05:15:50.812Z,9.21
2022-10-14T05:16:54.912Z,9.20
2022-10-14T05:18:03.250Z,9.17
2022-10-14T05:19:21.407Z,9.23
2022-10-14T05:20:26.244Z,9.27
2022-10-14T05:21:31.437Z,9.27
2022-10-14T05:22:45.827Z,9.16
2022-10-14T05:23:48.111Z,9.27
2022-10-14T05:24:50.390Z,9.23
2022-10-14T05:25:53.670Z,9.28
2022-10-14T05:26:57.109Z,9.24
2022-10-14T05:28:00.516Z,9.26
2022-10-14T05:29:03.266Z,9.28
2022-10-14T05:30:11.867Z,9.29
2022-10-14T05:31:19.312Z,9.34
2022-10-14T05:32:29.591Z,9.37
2022-10-14T05:33:37.958Z,9.35
2022-10-14T05:34:40.234Z,9.28
2022-10-14T05:36:00.216Z,9.35
2022-10-14T05:37:07.614Z,9.41
2022-10-14T05:38:17.432Z,9.42
2022-10-14T05:39:20.222Z,9.44
2022-10-14T05:40:23.012Z,9.47
2022-10-14T05:41:26.956Z,9.44
2022-10-14T05:42:29.245Z,9.53
2022-10-14T05:43:33.785Z,9.59
2022-10-14T05:44:38.911Z,9.51
2022-10-14T05:45:41.236Z,9.50
2022-10-14T05:46:43.892Z,9.47
2022-10-14T05:47:46.953Z,9.52
2022-10-14T05:48:52.862Z,9.53
2022-10-14T05:49:55.437Z,9.55
2022-10-14T05:51:01.688Z,9.56
2022-10-14T05:52:05.465Z,9.53
2022-10-14T05:53:08.598Z,9.61
2022-10-14T05:54:16.771Z,9.66
2022-10-14T05:55:19.752Z,9.57
2022-10-14T05:56:23.246Z,9.63
2022-10-14T05:57:25.620Z,9.72
2022-10-14T05:58:28.229Z,9.76
2022-10-14T05:59:30.628Z,9.72
2022-10-14T06:00:33.456Z,9.79
2022-10-14T06:01:41.170Z,9.84
2022-10-14T06:02:43.477Z,9.77
2022-10-14T06:03:52.997Z,9.81
2022-10-14T06:04:55.496Z,9.72
2022-10-14T06:05:59.041Z,9.82
2022-10-14T06:07:01.280Z,9.75
2022-10-14T06:08:05.226Z,9.76
2022-10-14T06:09:11.765Z,9.78
2022-10-14T06:10:14.286Z,9.83
2022-10-14T06:11:16.524Z,9.91
2022-10-14T06:12:19.279Z,9.89
2022-10-14T06:13:22.816Z,9.92
2022-10-14T06:14:26.399Z,9.97
2022-10-14T06:15:28.686Z,9.94
2022-10-14T06:16:31.516Z,9.94
2022-10-14T06:17:36.446Z,9.88
2022-10-14T06:18:39.617Z,9.81
2022-10-14T06:19:41.934Z,9.90
2022-10-14T06:20:44.166Z,9.96
2022-10-14T06:21:46.553Z,9.93
2022-10-14T06:22:48.741Z,10.05
2022-10-14T06:23:51.071Z,10.03
2022-10-14T06:24:53.551Z,10.03
2022-10-14T06:25:55.834Z,10.06
2022-10-14T06:26:58.294Z,10.06
2022-10-14T06:28:05.604Z,10.18
2022-10-14T06:29:08.224Z,10.18
2022-10-14T06:30:11.364Z,10.13
2022-10-14T06:31:13.602Z,10.08
2022-10-14T06:32:15.871Z,10.17
2022-10-14T06:33:18.602Z,10.23
2022-10-14T06:34:23.216Z,10.16
2022-10-14T06:35:25.651Z,10.16
2022-10-14T06:36:27.991Z,10.23
2022-10-14T06:37:30.328Z,10.33
2022-10-14T06:38:33.629Z,10.37
2022-10-14T06:39:35.906Z,10.34
2022-10-14T06:40:38.171Z,10.39
2022-10-14T06:41:40.456Z,10.38
2022-10-14T06:42:53.778Z,10.38
2022-10-14T06:43:56.123Z,10.40
2022-10-14T06:44:58.350Z,10.37
2022-10-14T06:46:02.265Z,10.47
2022-10-14T06:47:06.722Z,10.53
2022-10-14T06:48:09.572Z,10.67
2022-10-14T06:49:11.936Z,10.67
2022-10-14T06:50:14.473Z,10.68
2022-10-14T06:51:16.738Z,10.68
2022-10-14T06:52:19.264Z,10.72
2022-10-14T06:53:21.660Z,10.84
2022-10-14T06:54:23.912Z,10.92
2022-10-14T06:55:26.230Z,10.93
2022-10-14T06:56:28.528Z,10.97
2022-10-14T06:57:30.960Z,11.02
2022-10-14T06:58:33.726Z,11.04
2022-10-14T06:59:36.018Z,11.09
2022-10-14T07:00:38.417Z,11.14
2022-10-14T07:01:40.976Z,11.00
2022-10-14T07:02:44.049Z,11.04
2022-10-14T07:03:46.777Z,11.12
2022-10-14T07:04:48.980Z,11.19
2022-10-14T07:05:51.867Z,11.24
2022-10-14T07:06:55.332Z,11.27
2022-10-14T07:07:58.837Z,11.35
2022-10-14T07:09:01.341Z,11.35
2022-10-14T07:10:04.218Z,11.45
2022-10-14T07:11:07.296Z,11.48
2022-10-14T07:12:09.534Z,11.54
2022-10-14T07:13:12.209Z,11.50
2022-10-14T07:14:14.479Z,11.55
2022-10-14T07:15:16.758Z,11.50
2022-10-14T07:16:19.102Z,11.54
2022-10-14T07:17:21.526Z,11.76
2022-10-14T07:18:24.415Z,11.77
2022-10-14T07:19:26.880Z,12.11
2022-10-14T07:20:29.294Z,12.11
2022-10-14T07:21:31.466Z,11.98
2022-10-14T07:22:38.791Z,11.92
2022-10-14T07:23:41.568Z,11.94
2022-10-14T07:24:44.565Z,11.97
2022-10-14T07:25:46.917Z,12.11
2022-10-14T07:26:49.363Z,12.03
2022-10-14T07:27:53.745Z,12.11
2022-10-14T07:28:55.980Z,12.11
2022-10-14T07:29:58.297Z,12.12
2022-10-14T07:31:03.395Z,12.10
2022-10-14T07:32:05.666Z,12.06
2022-10-14T07:33:08.083Z,12.07
2022-10-14T07:34:10.412Z,12.20
2022-10-14T07:35:12.697Z,12.25
2022-10-14T07:36:20.051Z,12.12
2022-10-14T07:37:25.045Z,12.20
2022-10-14T07:38:27.390Z,12.19
2022-10-14T07:39:29.646Z,12.07
2022-10-14T07:40:31.992Z,12.25
2022-10-14T07:41:34.508Z,12.32
2022-10-14T07:42:36.877Z,12.29
2022-10-14T07:43:39.267Z,12.33
2022-10-14T07:44:41.759Z,12.19
2022-10-14T07:45:47.299Z,12.35
2022-10-14T07:46:50.913Z,12.32
2022-10-14T07:47:53.259Z,12.34
2022-10-14T07:48:57.908Z,12.30
2022-10-14T07:50:02.435Z,12.25
2022-10-14T07:51:05.854Z,12.38
2022-10-14T07:52:08.256Z,12.53
2022-10-14T07:53:10.588Z,12.40
2022-10-14T07:54:16.438Z,12.57
2022-10-14T07:55:18.763Z,12.66
2022-10-14T07:56:21.449Z,12.76
2022-10-14T07:57:24.242Z,12.47
2022-10-14T07:58:29.150Z,12.64
2022-10-14T07:59:31.477Z,12.56
2022-10-14T08:00:33.776Z,12.66
2022-10-14T08:01:36.444Z,12.65
2022-10-14T08:02:38.996Z,12.77
2022-10-14T08:03:42.136Z,12.80
2022-10-14T08:04:44.508Z,12.76
2022-10-14T08:05:50.379Z,12.82
2022-10-14T08:06:53.262Z,12.90
2022-10-14T08:07:55.472Z,12.93
2022-10-14T08:08:57.660Z,12.87
2022-10-14T08:09:59.936Z,12.90
2022-10-14T08:11:02.271Z,13.17
2022-10-14T08:12:04.720Z,12.96
2022-10-14T08:13:07.561Z,13.18
2022-10-14T08:14:09.835Z,13.11
2022-10-14T08:15:11.998Z,12.98
2022-10-14T08:16:23.242Z,13.16
2022-10-14T08:17:25.865Z,13.34
2022-10-14T08:18:28.497Z,13.34
2022-10-14T08:19:30.859Z,13.32
2022-10-14T08:20:34.177Z,13.54
2022-10-14T08:21:36.789Z,13.59
2022-10-14T08:22:39.059Z,13.80
2022-10-14T08:23:41.235Z,13.93
2022-10-14T08:24:44.498Z,13.97
2022-10-14T08:25:50.170Z,13.86
2022-10-14T08:26:54.688Z,14.26
2022-10-14T08:27:58.644Z,14.66
2022-10-14T08:29:05.680Z,14.97
2022-10-14T08:30:11.327Z,15.05
2022-10-14T08:31:16.670Z,15.14
2022-10-14T08:32:19.121Z,15.34
2022-10-14T08:33:21.707Z,15.35
2022-10-14T08:34:24.645Z,15.48
2022-10-14T08:35:27.475Z,15.84
2022-10-14T08:36:29.727Z,16.04
2022-10-14T08:37:31.935Z,15.86
2022-10-14T08:38:34.190Z,15.59
2022-10-14T08:39:36.323Z,15.56
2022-10-14T08:40:58.869Z,15.24
2022-10-14T08:42:16.403Z,15.55
2022-10-14T08:43:28.337Z,14.88
2022-10-14T08:44:56.601Z,14.97
2022-10-14T08:46:09.540Z,15.33
2022-10-14T08:47:16.816Z,15.10
2022-10-14T08:48:22.811Z,15.14
2022-10-14T08:49:50.022Z,15.53
2022-10-14T08:51:03.525Z,15.51
2022-10-14T08:52:12.286Z,15.58
2022-10-14T08:53:22.766Z,15.64
2022-10-14T08:54:48.084Z,15.64
2022-10-14T08:55:54.853Z,15.34
2022-10-14T08:56:57.909Z,15.33
2022-10-14T08:58:14.314Z,15.44
2022-10-14T08:59:20.160Z,15.45
2022-10-14T09:00:22.993Z,15.63
2022-10-14T09:01:39.946Z,15.79
2022-10-14T09:02:51.235Z,15.75
2022-10-14T09:04:02.560Z,16.01
2022-10-14T09:05:05.549Z,16.03
2022-10-14T09:06:13.213Z,16.02
2022-10-14T09:07:20.490Z,15.84
2022-10-14T09:08:31.010Z,16.04
2022-10-14T09:09:40.352Z,16.34
2022-10-14T09:10:44.120Z,16.95
2022-10-14T09:11:51.618Z,17.41
2022-10-14T09:12:59.632Z,17.23
2022-10-14T09:14:03.054Z,17.17
2022-10-14T09:15:22.736Z,16.69
2022-10-14T09:16:31.214Z,16.26
2022-10-14T09:17:40.493Z,16.43
2022-10-14T09:18:53.858Z,16.14
2022-10-14T09:20:22.907Z,16.10
2022-10-14T09:21:52.110Z,16.19
2022-10-14T09:23:04.756Z,16.60
2022-10-14T09:24:14.732Z,17.51
2022-10-14T09:25:18.122Z,17.31
2022-10-14T09:26:20.403Z,17.37
2022-10-14T09:27:23.602Z,17.21
2022-10-14T09:28:38.531Z,17.22
2022-10-14T09:29:44.215Z,17.15
2022-10-14T09:30:46.619Z,17.07
2022-10-14T09:31:49.080Z,16.70
2022-10-14T09:32:54.308Z,16.45
2022-10-14T09:33:57.287Z,16.74
2022-10-14T09:34:59.935Z,16.61
2022-10-14T09:36:02.234Z,16.82
2022-10-14T09:37:33.408Z,16.38
2022-10-14T09:38:37.579Z,16.21
2022-10-14T09:39:41.197Z,16.10
2022-10-14T09:40:45.489Z,16.08
2022-10-14T09:41:52.628Z,15.71
2022-10-14T09:43:19.723Z,15.60
2022-10-14T09:44:26.222Z,16.05
2022-10-14T09:45:46.037Z,16.07
2022-10-14T09:47:13.052Z,16.34
2022-10-14T09:48:24.445Z,16.28
2022-10-14T09:49:48.054Z,16.20
2022-10-14T09:50:53.257Z,16.11
2022-10-14T09:51:57.171Z,16.12
2022-10-14T09:53:01.712Z,15.75
2022-10-14T09:54:05.129Z,15.73
2022-10-14T09:55:17.806Z,15.70
2022-10-14T09:56:48.308Z,15.99
2022-10-14T09:58:04.211Z,16.08
2022-10-14T09:59:19.410Z,16.13
2022-10-14T10:00:28.625Z,16.30
2022-10-14T10:01:41.826Z,16.41
2022-10-14T10:02:47.065Z,16.35
2022-10-14T10:03:51.272Z,16.72
2022-10-14T10:04:55.042Z,16.87
2022-10-14T10:06:06.458Z,17.10
2022-10-14T10:07:31.596Z,17.46
2022-10-14T10:08:36.944Z,17.76
2022-10-14T10:09:39.185Z,18.05
2022-10-14T10:10:41.987Z,18.55
2022-10-14T10:11:44.198Z,18.90
2022-10-14T10:12:47.371Z,19.04
2022-10-14T10:13:50.290Z,19.52
2022-10-14T10:15:03.877Z,19.65
2022-10-14T10:16:08.735Z,19.79
2022-10-14T10:17:17.930Z,19.70
2022-10-14T10:18:20.218Z,19.93
2022-10-14T10:19:32.263Z,20.37
2022-10-14T10:20:35.663Z,19.78
2022-10-14T10:21:37.813Z,19.10
2022-10-14T10:22:40.215Z,19.38
2022-10-14T10:24:00.342Z,19.81
2022-10-14T10:25:02.638Z,19.56
2022-10-14T10:26:25.997Z,19.80
2022-10-14T10:27:36.255Z,19.85
2022-10-14T10:28:45.493Z,20.18
2022-10-14T10:29:47.958Z,20.31
2022-10-14T10:31:06.318Z,21.06
2022-10-14T10:32:31.512Z,20.59
2022-10-14T10:33:55.125Z,20.88
2022-10-14T10:35:12.654Z,20.62
2022-10-14T10:36:29.242Z,20.59
2022-10-14T10:37:52.545Z,20.82
2022-10-14T10:38:57.938Z,20.37
2022-10-14T10:40:18.015Z,20.44
2022-10-14T10:41:26.113Z,20.15
2022-10-14T10:42:46.961Z,20.74
2022-10-14T10:44:16.387Z,21.29
2022-10-14T10:45:35.556Z,21.26
2022-10-14T10:47:20.915Z,21.34
2022-10-14T10:48:41.709Z,21.36
2022-10-14T10:50:18.266Z,20.96
2022-10-14T10:51:32.250Z,20.71
2022-10-14T10:52:49.259Z,21.12
2022-10-14T10:54:02.649Z,20.79
2022-10-14T10:55:22.850Z,21.48
2022-10-14T10:56:46.060Z,21.09
2022-10-14T10:58:26.382Z,21.03
2022-10-14T10:59:41.152Z,21.79
2022-10-14T11:00:54.105Z,21.07
2022-10-14T11:02:16.889Z,20.76
2022-10-14T11:03:39.984Z,21.04
2022-10-14T11:04:51.062Z,20.96
2022-10-14T11:06:04.002Z,21.47
2022-10-14T11:07:41.729Z,20.64
2022-10-14T11:09:28.091Z,21.14
2022-10-14T11:11:00.285Z,21.75
2022-10-14T11:12:23.367Z,21.71
2022-10-14T11:13:36.827Z,21.81
2022-10-14T11:14:46.441Z,21.70
2022-10-14T11:16:00.721Z,21.24
2022-10-14T11:17:10.431Z,20.38
2022-10-14T11:18:33.819Z,21.26
2022-10-14T11:19:50.986Z,21.92
2022-10-14T11:21:11.313Z,21.72
2022-10-14T11:22:43.386Z,21.50
2022-10-14T11:23:59.832Z,21.28
2022-10-14T11:25:23.833Z,22.05
2022-10-14T11:26:32.127Z,21.77
2022-10-14T11:27:43.768Z,22.10
2022-10-14T11:28:55.736Z,21.89
2022-10-14T11:30:04.035Z,22.16
2022-10-14T11:31:18.526Z,22.26
2022-10-14T11:32:33.774Z,22.17
2022-10-14T11:33:55.254Z,21.96
2022-10-14T11:35:20.406Z,22.19
2022-10-14T11:36:36.462Z,21.99
2022-10-14T11:38:03.823Z,21.93
2022-10-14T11:39:12.133Z,22.13
2022-10-14T11:40:25.666Z,22.22
2022-10-14T11:42:01.673Z,22.34
2022-10-14T11:43:29.038Z,22.51
2022-10-14T11:44:38.190Z,21.72
2022-10-14T11:45:46.985Z,21.89
2022-10-14T11:46:56.850Z,22.08
2022-10-14T11:48:10.278Z,21.60
2022-10-14T11:49:25.471Z,21.66
2022-10-14T11:50:36.468Z,21.54
2022-10-14T11:51:45.875Z,21.86
2022-10-14T11:53:10.115Z,21.90
2022-10-14T11:54:23.046Z,22.33
2022-10-14T11:55:29.241Z,22.20
2022-10-14T11:56:57.619Z,22.47
2022-10-14T11:58:15.036Z,22.34
2022-10-14T11:59:30.700Z,22.26
2022-10-14T12:00:39.364Z,22.56
2022-10-14T12:01:43.875Z,21.96
2022-10-14T12:03:12.347Z,22.14
2022-10-14T12:04:28.069Z,22.61
2022-10-14T12:05:48.114Z,22.04
2022-10-14T12:07:01.437Z,22.27
2022-10-14T12:08:06.558Z,22.25
2022-10-14T12:09:24.043Z,22.24
2022-10-14T12:11:01.511Z,22.64
2022-10-14T12:12:07.395Z,22.58
2022-10-14T12:13:15.762Z,22.23
2022-10-14T12:14:21.640Z,22.31
2022-10-14T12:15:27.223Z,22.53
2022-10-14T12:16:29.750Z,22.62
2022-10-14T12:18:01.822Z,22.37
2022-10-14T12:19:10.014Z,22.22
2022-10-14T12:20:39.026Z,22.53
2022-10-14T12:22:21.628Z,22.52
2022-10-14T12:23:37.301Z,22.19
2022-10-14T12:24:45.558Z,22.37
2022-10-14T12:26:01.334Z,22.13
2022-10-14T12:27:11.430Z,22.03
2022-10-14T12:28:15.267Z,21.84
2022-10-14T12:29:26.317Z,21.73
2022-10-14T12:30:42.017Z,22.75
2022-10-14T12:31:50.234Z,22.85
2022-10-14T12:33:09.133Z,23.12
2022-10-14T12:34:17.541Z,22.95
2022-10-14T12:35:47.788Z,23.29
2022-10-14T12:36:52.709Z,22.59
2022-10-14T12:38:03.970Z,23.27
2022-10-14T12:39:18.419Z,22.59
2022-10-14T12:40:26.394Z,23.06
2022-10-14T12:41:37.253Z,23.10
2022-10-14T12:42:59.797Z,23.42
2022-10-14T12:44:14.285Z,22.76
2022-10-14T12:45:22.739Z,23.38
2022-10-14T12:46:25.346Z,23.06
2022-10-14T12:47:37.311Z,22.62
2022-10-14T12:48:50.909Z,22.96
2022-10-14T12:49:56.543Z,23.18
2022-10-14T12:51:28.867Z,22.61
2022-10-14T12:52:37.587Z,23.29
2022-10-14T12:53:48.964Z,22.97
2022-10-14T12:56:02.349Z,22.19
2022-10-14T12:57:18.225Z,22.37
2022-10-14T12:58:57.705Z,22.70
2022-10-14T13:00:04.423Z,22.85
2022-10-14T13:01:19.203Z,22.69
2022-10-14T13:02:35.898Z,23.09
2022-10-14T13:03:43.546Z,22.69
2022-10-14T13:04:51.940Z,22.43
2022-10-14T13:06:14.833Z,22.29
2022-10-14T13:07:39.031Z,22.64
2022-10-14T13:08:39.928Z,22.71
2022-10-14T13:09:42.268Z,22.52
2022-10-14T13:10:46.937Z,22.50
2022-10-14T13:11:52.705Z,22.76
2022-10-14T13:12:55.231Z,22.13
2022-10-14T13:14:02.488Z,21.98
2022-10-14T13:15:34.365Z,22.23
2022-10-14T13:16:36.762Z,22.19
2022-10-14T13:17:46.249Z,22.24
2022-10-14T13:18:52.819Z,22.38
2022-10-14T13:19:55.218Z,22.45
2022-10-14T13:20:57.938Z,22.48
2022-10-14T13:22:02.123Z,22.07
2022-10-14T13:23:27.518Z,21.92
2022-10-14T13:24:49.810Z,21.90
2022-10-14T13:25:52.764Z,21.58
2022-10-14T13:26:55.682Z,21.93
2022-10-14T13:28:15.233Z,21.97
2022-10-14T13:29:20.576Z,21.43
2022-10-14T13:30:46.262Z,21.48
2022-10-14T13:32:28.570Z,21.95
2022-10-14T13:33:51.091Z,21.91
2022-10-14T13:35:32.367Z,21.89
2022-10-14T13:36:42.602Z,21.81
2022-10-14T13:37:58.353Z,21.51
2022-10-14T13:39:01.553Z,21.69
2022-10-14T13:40:35.150Z,21.83
2022-10-14T13:41:38.154Z,21.87
2022-10-14T13:42:40.573Z,21.63
2022-10-14T13:43:43.635Z,21.45
2022-10-14T13:45:57.604Z,20.87
2022-10-14T13:47:00.782Z,21.15
2022-10-14T13:48:03.199Z,21.26
2022-10-14T13:49:08.426Z,21.24
2022-10-14T13:50:12.950Z,21.05
2022-10-14T13:51:31.532Z,20.91
2022-10-14T13:52:37.963Z,20.85
2022-10-14T13:53:54.504Z,20.63
2022-10-14T13:55:17.547Z,20.76
2022-10-14T13:56:31.506Z,20.76
2022-10-14T13:58:11.601Z,20.61
2022-10-14T13:58:57.274Z,20.54
2022-10-14T14:01:25.876Z,20.22
2022-10-14T14:02:29.485Z,20.31
2022-10-14T14:03:35.710Z,20.24
2022-10-14T14:04:39.166Z,20.11
2022-10-14T14:05:41.965Z,20.24
2022-10-14T14:07:00.454Z,20.40
2022-10-14T14:09:39.540Z,19.92
2022-10-14T14:11:11.052Z,19.67
2022-10-14T14:12:05.439Z,19.86
2022-10-14T14:13:07.708Z,20.00
2022-10-14T14:14:20.574Z,20.28
2022-10-14T14:15:27.445Z,19.79
2022-10-14T14:16:34.743Z,20.04
2022-10-14T14:17:37.003Z,19.76
2022-10-14T14:18:49.453Z,19.64
2022-10-14T14:19:58.769Z,19.79
2022-10-14T14:21:01.670Z,19.67
2022-10-14T14:22:28.479Z,19.55
2022-10-14T14:23:31.206Z,19.50
2022-10-14T14:24:34.456Z,19.54
2022-10-14T14:25:46.823Z,19.21
2022-10-14T14:26:59.607Z,19.28
2022-10-14T14:28:03.040Z,19.16
2022-10-14T14:29:06.715Z,19.06
2022-10-14T14:30:26.513Z,19.18
2022-10-14T14:31:47.874Z,19.23
2022-10-14T14:32:52.969Z,19.21
2022-10-14T14:33:59.941Z,19.06
2022-10-14T14:35:05.234Z,18.96
2022-10-14T14:36:22.275Z,18.90
2022-10-14T14:37:48.064Z,18.92
2022-10-14T14:39:01.411Z,18.84
2022-10-14T14:40:20.638Z,18.79
2022-10-14T14:41:25.441Z,18.67
2022-10-14T14:42:36.134Z,18.52
2022-10-14T14:43:44.668Z,18.56
2022-10-14T14:44:50.583Z,18.58
2022-10-14T14:45:53.800Z,18.48
2022-10-14T14:47:01.866Z,18.44
2022-10-14T14:48:08.427Z,18.42
2022-10-14T14:49:17.358Z,18.36
2022-10-14T14:50:30.343Z,18.16
2022-10-14T14:51:39.387Z,18.05
2022-10-14T14:52:42.816Z,18.02
2022-10-14T14:53:52.056Z,17.96
2022-10-14T14:54:54.356Z,17.87
2022-10-14T14:55:56.554Z,17.80
2022-10-14T14:57:08.226Z,17.72
2022-10-14T14:58:30.681Z,17.57
2022-10-14T14:59:38.704Z,17.59
2022-10-14T15:00:45.457Z,17.51
2022-10-14T15:01:47.912Z,17.40
2022-10-14T15:02:54.227Z,17.31
2022-10-14T15:04:18.198Z,17.36